Adfines Star — 9HA2916 — position and weather

sailwx.info

Track history (hours):
 
Tides and Currents Weather Stations Pressure Air Temp Water Temp Dewpoint Dewpoint Depression Visibility Wind Speed Wind Dir Waves Ship Positions

Adfines Star

Last reported at 2018-Aug-14 17:54 UTC. Time now 2018-Aug-19 23:12 UTC.
Position N 46°50' W 071°09'.

Length 162 m; draft 7.3 m.

Type: Tanker. MMSI: 256735000.

Date/timePositionNaut miles runAvg speedWind from/ knotsBaromVisibWave heightAir tempDewpointWater temp
2018-Aug-14 17:54N 46°50' W 071°09'9212.5
2018-Aug-14 10:35N 46°04' W 073°04'113.9
2018-Aug-14 10:31N 46°04' W 073°05'611.2
2018-Aug-14 10:00N 45°59' W 073°11'713.6
2018-Aug-14 09:30N 45°53' W 073°14'714.1
2018-Aug-14 09:01N 45°48' W 073°20'1910.3
2018-Aug-14 07:08N 45°30' W 073°31'0 0.8
2018-Aug-14 07:01N 45°30' W 073°31'0 0.5
2018-Aug-14 06:31N 45°29' W 073°31'1 2.4
2018-Aug-14 06:01N 45°28' W 073°30'3 5.3
2018-Aug-14 05:31N 45°26' W 073°30'3 5.3
2018-Aug-14 05:00N 45°24' W 073°34'0 0.7
2018-Aug-14 04:31N 45°24' W 073°34'1 2.2
2018-Aug-14 04:00N 45°24' W 073°36'1 3.0
2018-Aug-14 03:30N 45°24' W 073°38'2 3.3
2018-Aug-14 03:00N 45°25' W 073°40'1 2.9
2018-Aug-14 02:30N 45°25' W 073°42'3 5.8
2018-Aug-14 02:00N 45°24' W 073°46'2 4.9
2018-Aug-14 01:30N 45°23' W 073°49'3 5.7
2018-Aug-14 01:00N 45°21' W 073°52'3 5.5
2018-Aug-14 00:31N 45°19' W 073°55'0 0.6
2018-Aug-14 00:01N 45°19' W 073°55'0 0.5
2018-Aug-13 23:30N 45°19' W 073°55'1 1.2
2018-Aug-13 23:01N 45°18' W 073°56'0 0.8
2018-Aug-13 22:30N 45°18' W 073°56'2 4.0
2018-Aug-13 22:01N 45°16' W 073°57'  
2018-Aug-05 06:29N 45°14' W 074°13'8 9.6
2018-Aug-05 05:41N 45°13' W 074°02'310.0
2018-Aug-05 05:24N 45°15' W 073°58'4 9.3
2018-Aug-05 05:00N 45°18' W 073°56'0 0.8
2018-Aug-05 04:30N 45°18' W 073°55'1 1.2
2018-Aug-05 04:00N 45°19' W 073°55'1 2.3
2018-Aug-05 03:30N 45°20' W 073°54'510.7
2018-Aug-05 03:00N 45°23' W 073°48'4 9.1
2018-Aug-05 02:30N 45°25' W 073°42'3 6.3
2018-Aug-05 02:00N 45°24' W 073°38'3 5.4
2018-Aug-05 01:30N 45°24' W 073°34'1 1.1
2018-Aug-05 01:00N 45°24' W 073°33'3 5.5
2018-Aug-05 00:31N 45°26' W 073°30'3 6.7
2018-Aug-05 00:00N 45°29' W 073°31'0 0.4
2018-Aug-04 23:31N 45°30' W 073°31'  
Track history (hours):
 
Tides and Currents Weather Stations Pressure Air Temp Water Temp Dewpoint Dewpoint Depression Visibility Wind Speed Wind Dir Waves Ship Positions

Adfines Star

Last reported at 2018-Aug-14 17:54 UTC. Time now 2018-Aug-19 23:12 UTC.
Position N 46°50' W 071°09'.

Length 162 m; draft 7.3 m.

Type: Tanker. MMSI: 256735000.

Date/timePositionNaut miles runAvg speedWind from/ knotsBaromVisibWave heightAir tempDewpointWater temp
2018-Aug-14 17:54N 46°50' W 071°09'9212.5
2018-Aug-14 10:35N 46°04' W 073°04'113.9
2018-Aug-14 10:31N 46°04' W 073°05'611.2
2018-Aug-14 10:00N 45°59' W 073°11'713.6
2018-Aug-14 09:30N 45°53' W 073°14'714.1
2018-Aug-14 09:01N 45°48' W 073°20'1910.3
2018-Aug-14 07:08N 45°30' W 073°31'0 0.8
2018-Aug-14 07:01N 45°30' W 073°31'0 0.5
2018-Aug-14 06:31N 45°29' W 073°31'1 2.4
2018-Aug-14 06:01N 45°28' W 073°30'3 5.3
2018-Aug-14 05:31N 45°26' W 073°30'3 5.3
2018-Aug-14 05:00N 45°24' W 073°34'0 0.7
2018-Aug-14 04:31N 45°24' W 073°34'1 2.2
2018-Aug-14 04:00N 45°24' W 073°36'1 3.0
2018-Aug-14 03:30N 45°24' W 073°38'2 3.3
2018-Aug-14 03:00N 45°25' W 073°40'1 2.9
2018-Aug-14 02:30N 45°25' W 073°42'3 5.8
2018-Aug-14 02:00N 45°24' W 073°46'2 4.9
2018-Aug-14 01:30N 45°23' W 073°49'3 5.7
2018-Aug-14 01:00N 45°21' W 073°52'3 5.5
2018-Aug-14 00:31N 45°19' W 073°55'0 0.6
2018-Aug-14 00:01N 45°19' W 073°55'0 0.5
2018-Aug-13 23:30N 45°19' W 073°55'1 1.2
2018-Aug-13 23:01N 45°18' W 073°56'0 0.8
2018-Aug-13 22:30N 45°18' W 073°56'2 4.0
2018-Aug-13 22:01N 45°16' W 073°57'  
2018-Aug-05 06:29N 45°14' W 074°13'8 9.6
2018-Aug-05 05:41N 45°13' W 074°02'310.0
2018-Aug-05 05:24N 45°15' W 073°58'4 9.3
2018-Aug-05 05:00N 45°18' W 073°56'0 0.8
2018-Aug-05 04:30N 45°18' W 073°55'1 1.2
2018-Aug-05 04:00N 45°19' W 073°55'1 2.3
2018-Aug-05 03:30N 45°20' W 073°54'510.7
2018-Aug-05 03:00N 45°23' W 073°48'4 9.1
2018-Aug-05 02:30N 45°25' W 073°42'3 6.3
2018-Aug-05 02:00N 45°24' W 073°38'3 5.4
2018-Aug-05 01:30N 45°24' W 073°34'1 1.1
2018-Aug-05 01:00N 45°24' W 073°33'3 5.5
2018-Aug-05 00:31N 45°26' W 073°30'3 6.7
2018-Aug-05 00:00N 45°29' W 073°31'0 0.4
2018-Aug-04 23:31N 45°30' W 073°31'  

Dump ship's entire track history